메인 페이지
METAR-TAF:

METAR-TAF

공항 :

치앙마이 국제공항

치앙마이, 타이

위도: 18-47N, 경도: 098-59E, 고도: 312m

현재 날씨관측

예보는 15분 전, 15:30시(UTC)에 발표되었습니다.
여러 방향의 바람 5kt
온도 30°C
습도 62%
기압 1007 hPa
시정 10km 이상
고도 2500ft 상공 구름 조금, 타워링 적운.
고도 3500ft 상공 구름 보통

METAR: VTCC 201530Z VRB05KT 9999 FEW025TCU SCT035 30/22 Q1007 NOSIG

시각: 22:45 (15:45 UTC)

예보

예보는 4 시간 45분 전, 11:00시(UTC)에 발표되었습니다.
예보 대상 시간: 20일 12시부터 21일 18시까지 (UTC)
서남서5kt
시정 10km 이상
고도 3500ft 상공 구름 보통
일시적
20일 12시부터 20일 16시까지 (UTC)
15kt, 순간 최대 풍속 25kt
시정: 4500m
고도 2500ft 상공 구름 조금, 적란운.
고도 3500ft 상공 구름 많음
뇌우, 비
전환 중
20일 14시부터 20일 16시까지 (UTC)
북북동5kt
일시적
20일 18시부터 20일 22시까지 (UTC)
10kt, 순간 최대 풍속 25kt
시정: 4500m
고도 2500ft 상공 구름 조금, 적란운.
고도 3500ft 상공 구름 많음
뇌우, 비
전환 중
21일 01시부터 21일 03시까지 (UTC)
서남서5kt

TAF: VTCC 201100Z 2012/2118 25005KT 9999 SCT035 TEMPO 2012/2016 27015G25KT 4500 TSRA FEW025CB BKN035 BECMG 2014/2016 03005KT TEMPO 2018/2022 36010G25KT 4500 TSRA FEW025CB BKN035 BECMG 2101/2103 25005KT

4,000개 이상의 공항 관측 자료 및 예보 (METAR 및 TAF 보고).

지도상에서 검색 가능한 기상관측소가 노란 점과 빨간 점으로 표시되어 있습니다.

기상관측소 명을 보려면 표시 위로 마우스를 이동하세요.

날씨 관측과 예보를 보려면 클릭하세요.

지도 변경 : 확대하려면 엑스 표시가 있는 녹색 버튼, 축소하려면 빼기 표시가 있는 녹색 버튼, 다음 페이지의 지도를 보려면 녹색 화살표를 클릭하세요.


METAR-TAF: